N3518X KLAL-KISM
Flight info
| Callsign | N3518X |
|---|---|
| Flight time | 0h 21m |
| Altitude | 3500 |
| Route | FLIGHT FOLLOWING |
| Aircraft | BE36/L-G/L |
Departure
| Time | 2026-04-22 00:19 |
|---|---|
| Airport | Lakeland Linder International Airport (KLAL) |
Arrival
| Time | 2026-04-22 00:40 |
|---|---|
| Airport | Kissimmee Gateway Airport (KISM) |
| Time | Latitude | Longitude | Altitude | Speed | Heading |
|---|---|---|---|---|---|
| 2026-04-22 00:02 | 27.99178 | -82.01472 | 138 ft | 0 kts | 180° |
| 2026-04-22 00:09 | 27.99172 | -82.01477 | 138 ft | 4 kts | 251° |
| 2026-04-22 00:09 | 27.99160 | -82.01526 | 138 ft | 8 kts | 216° |
| 2026-04-22 00:09 | 27.99106 | -82.01534 | 138 ft | 0 kts | 185° |
| 2026-04-22 00:10 | 27.99080 | -82.01536 | 138 ft | 8 kts | 180° |
| 2026-04-22 00:11 | 27.99059 | -82.01532 | 138 ft | 6 kts | 144° |
| 2026-04-22 00:11 | 27.99004 | -82.01484 | 138 ft | 15 kts | 196° |
| 2026-04-22 00:11 | 27.98903 | -82.01588 | 139 ft | 24 kts | 225° |
| 2026-04-22 00:11 | 27.98799 | -82.01705 | 143 ft | 18 kts | 224° |
| 2026-04-22 00:12 | 27.98732 | -82.01813 | 141 ft | 16 kts | 266° |
| 2026-04-22 00:12 | 27.98732 | -82.01974 | 141 ft | 25 kts | 271° |
| 2026-04-22 00:12 | 27.98732 | -82.02161 | 139 ft | 27 kts | 271° |
| 2026-04-22 00:12 | 27.98747 | -82.02292 | 134 ft | 13 kts | 337° |
| 2026-04-22 00:13 | 27.98817 | -82.02335 | 135 ft | 14 kts | 268° |
| 2026-04-22 00:13 | 27.98817 | -82.02463 | 134 ft | 19 kts | 269° |
| 2026-04-22 00:13 | 27.98816 | -82.02639 | 134 ft | 21 kts | 271° |
| 2026-04-22 00:13 | 27.98815 | -82.02836 | 132 ft | 29 kts | 269° |
| 2026-04-22 00:14 | 27.98815 | -82.03025 | 134 ft | 15 kts | 270° |
| 2026-04-22 00:14 | 27.98815 | -82.03175 | 135 ft | 22 kts | 270° |
| 2026-04-22 00:14 | 27.98815 | -82.03285 | 135 ft | 7 kts | 270° |
| 2026-04-22 00:14 | 27.98817 | -82.03323 | 135 ft | 4 kts | 288° |
| 2026-04-22 00:15 | 27.98821 | -82.03331 | 135 ft | 3 kts | 297° |
| 2026-04-22 00:15 | 27.98840 | -82.03349 | 135 ft | 1 kts | 342° |
| 2026-04-22 00:16 | 27.98841 | -82.03349 | 135 ft | 0 kts | 342° |
| 2026-04-22 00:16 | 27.98848 | -82.03351 | 135 ft | 4 kts | 354° |
| 2026-04-22 00:17 | 27.98912 | -82.03344 | 135 ft | 10 kts | 46° |
| 2026-04-22 00:17 | 27.98925 | -82.03303 | 135 ft | 0 kts | 89° |
| 2026-04-22 00:18 | 27.98925 | -82.03286 | 135 ft | 19 kts | 90° |
| 2026-04-22 00:18 | 27.98925 | -82.02832 | 214 ft | 80 kts | 93° |
| 2026-04-22 00:18 | 27.98921 | -82.02184 | 616 ft | 86 kts | 91° |
| 2026-04-22 00:19 | 27.98905 | -82.01468 | 974 ft | 95 kts | 93° |
| 2026-04-22 00:19 | 27.98855 | -82.00721 | 1445 ft | 90 kts | 93° |
| 2026-04-22 00:19 | 27.98797 | -82.00044 | 1925 ft | 88 kts | 93° |
| 2026-04-22 00:19 | 27.98769 | -81.99359 | 2380 ft | 87 kts | 92° |
| 2026-04-22 00:20 | 27.98744 | -81.98642 | 2678 ft | 94 kts | 91° |
| 2026-04-22 00:20 | 27.98805 | -81.97902 | 2784 ft | 98 kts | 83° |
| 2026-04-22 00:20 | 27.98921 | -81.97110 | 2734 ft | 104 kts | 83° |
| 2026-04-22 00:20 | 27.99039 | -81.96290 | 2689 ft | 107 kts | 82° |
| 2026-04-22 00:21 | 27.99167 | -81.95444 | 2642 ft | 108 kts | 82° |
| 2026-04-22 00:21 | 27.99294 | -81.94595 | 2645 ft | 109 kts | 81° |
| 2026-04-22 00:21 | 27.99478 | -81.93766 | 2714 ft | 108 kts | 77° |
| 2026-04-22 00:21 | 27.99660 | -81.92962 | 2817 ft | 103 kts | 79° |
| 2026-04-22 00:22 | 27.99874 | -81.92169 | 2854 ft | 104 kts | 73° |
| 2026-04-22 00:22 | 28.00115 | -81.91399 | 2950 ft | 100 kts | 73° |
| 2026-04-22 00:22 | 28.00436 | -81.90699 | 2975 ft | 105 kts | 51° |
| 2026-04-22 00:22 | 28.00988 | -81.90149 | 3023 ft | 107 kts | 48° |
| 2026-04-22 00:23 | 28.01537 | -81.89602 | 3186 ft | 105 kts | 49° |
| 2026-04-22 00:23 | 28.02071 | -81.89020 | 3308 ft | 105 kts | 53° |
| 2026-04-22 00:23 | 28.02598 | -81.88435 | 3495 ft | 106 kts | 51° |
| 2026-04-22 00:23 | 28.03130 | -81.87851 | 3649 ft | 107 kts | 51° |
| 2026-04-22 00:24 | 28.03692 | -81.87289 | 3776 ft | 108 kts | 51° |
| 2026-04-22 00:24 | 28.04233 | -81.86670 | 3837 ft | 113 kts | 50° |
| 2026-04-22 00:24 | 28.04609 | -81.86240 | 3816 ft | 120 kts | 52° |
| 2026-04-22 00:24 | 28.05198 | -81.85535 | 3807 ft | 125 kts | 53° |
| 2026-04-22 00:25 | 28.05780 | -81.84774 | 3790 ft | 129 kts | 56° |
| 2026-04-22 00:25 | 28.06360 | -81.83991 | 3780 ft | 132 kts | 55° |
| 2026-04-22 00:25 | 28.06926 | -81.83164 | 3718 ft | 134 kts | 58° |
| 2026-04-22 00:25 | 28.07465 | -81.82306 | 3713 ft | 132 kts | 60° |
| 2026-04-22 00:26 | 28.07967 | -81.81446 | 3748 ft | 129 kts | 62° |
| 2026-04-22 00:26 | 28.08466 | -81.80605 | 3765 ft | 129 kts | 60° |
| 2026-04-22 00:26 | 28.08971 | -81.79751 | 3712 ft | 132 kts | 60° |
| 2026-04-22 00:26 | 28.09472 | -81.78869 | 3665 ft | 134 kts | 62° |
| 2026-04-22 00:27 | 28.09969 | -81.77966 | 3597 ft | 137 kts | 63° |
| 2026-04-22 00:27 | 28.10436 | -81.77029 | 3529 ft | 138 kts | 66° |
| 2026-04-22 00:27 | 28.10876 | -81.76073 | 3488 ft | 135 kts | 66° |
| 2026-04-22 00:27 | 28.11316 | -81.75137 | 3451 ft | 134 kts | 64° |
| 2026-04-22 00:28 | 28.11772 | -81.74204 | 3382 ft | 137 kts | 67° |
| 2026-04-22 00:28 | 28.12145 | -81.73229 | 3375 ft | 135 kts | 69° |
| 2026-04-22 00:28 | 28.12501 | -81.72266 | 3397 ft | 130 kts | 70° |
| 2026-04-22 00:28 | 28.12837 | -81.71320 | 3398 ft | 129 kts | 70° |
| 2026-04-22 00:29 | 28.13162 | -81.70380 | 3402 ft | 127 kts | 73° |
| 2026-04-22 00:29 | 28.13449 | -81.69443 | 3454 ft | 122 kts | 72° |
| 2026-04-22 00:29 | 28.13812 | -81.68563 | 3505 ft | 129 kts | 58° |
| 2026-04-22 00:29 | 28.14482 | -81.67804 | 3506 ft | 141 kts | 47° |
| 2026-04-22 00:30 | 28.15232 | -81.67043 | 3496 ft | 148 kts | 47° |
| 2026-04-22 00:30 | 28.16004 | -81.66258 | 3505 ft | 150 kts | 48° |
| 2026-04-22 00:30 | 28.16758 | -81.65459 | 3505 ft | 152 kts | 50° |
| 2026-04-22 00:30 | 28.17452 | -81.64562 | 3518 ft | 150 kts | 56° |
| 2026-04-22 00:31 | 28.18089 | -81.63625 | 3581 ft | 149 kts | 57° |
| 2026-04-22 00:31 | 28.18687 | -81.62655 | 3608 ft | 151 kts | 59° |
| 2026-04-22 00:31 | 28.19271 | -81.61644 | 3539 ft | 155 kts | 62° |
| 2026-04-22 00:31 | 28.19835 | -81.60599 | 3481 ft | 153 kts | 62° |
| 2026-04-22 00:32 | 28.20388 | -81.59585 | 3404 ft | 149 kts | 62° |
| 2026-04-22 00:32 | 28.20933 | -81.58576 | 3184 ft | 150 kts | 63° |
| 2026-04-22 00:32 | 28.21440 | -81.57557 | 2861 ft | 147 kts | 65° |
| 2026-04-22 00:32 | 28.21936 | -81.56563 | 2540 ft | 147 kts | 64° |
| 2026-04-22 00:33 | 28.22470 | -81.55609 | 2324 ft | 139 kts | 62° |
| 2026-04-22 00:33 | 28.22998 | -81.54732 | 2135 ft | 130 kts | 58° |
| 2026-04-22 00:33 | 28.23471 | -81.53918 | 2052 ft | 117 kts | 62° |
| 2026-04-22 00:33 | 28.23900 | -81.53183 | 1992 ft | 108 kts | 62° |
| 2026-04-22 00:34 | 28.24309 | -81.52485 | 1938 ft | 105 kts | 62° |
| 2026-04-22 00:34 | 28.24763 | -81.51845 | 1915 ft | 104 kts | 56° |
| 2026-04-22 00:34 | 28.25221 | -81.51218 | 1900 ft | 102 kts | 57° |
| 2026-04-22 00:34 | 28.25647 | -81.50577 | 1866 ft | 103 kts | 60° |
| 2026-04-22 00:35 | 28.26055 | -81.49902 | 1849 ft | 104 kts | 60° |
| 2026-04-22 00:35 | 28.26465 | -81.49227 | 1837 ft | 106 kts | 60° |
| 2026-04-22 00:35 | 28.26861 | -81.48537 | 1701 ft | 104 kts | 63° |
| 2026-04-22 00:35 | 28.27238 | -81.47845 | 1498 ft | 102 kts | 63° |
| 2026-04-22 00:36 | 28.27685 | -81.47233 | 1390 ft | 102 kts | 41° |
| 2026-04-22 00:36 | 28.28415 | -81.47160 | 1311 ft | 119 kts | 345° |
| 2026-04-22 00:36 | 28.29177 | -81.47570 | 1192 ft | 122 kts | 342° |
| 2026-04-22 00:36 | 28.29932 | -81.47997 | 1143 ft | 118 kts | 343° |
| 2026-04-22 00:37 | 28.30666 | -81.48271 | 1146 ft | 104 kts | 15° |
| 2026-04-22 00:37 | 28.31287 | -81.47994 | 1103 ft | 92 kts | 50° |
| 2026-04-22 00:37 | 28.31712 | -81.47469 | 948 ft | 90 kts | 58° |
| 2026-04-22 00:37 | 28.32088 | -81.46908 | 832 ft | 91 kts | 60° |
| 2026-04-22 00:38 | 28.32378 | -81.46295 | 753 ft | 85 kts | 90° |
| 2026-04-22 00:38 | 28.31999 | -81.45829 | 618 ft | 91 kts | 143° |
| 2026-04-22 00:38 | 28.31482 | -81.45471 | 561 ft | 75 kts | 137° |
| 2026-04-22 00:38 | 28.31077 | -81.45187 | 426 ft | 68 kts | 135° |
| 2026-04-22 00:39 | 28.30667 | -81.44899 | 361 ft | 69 kts | 135° |
| 2026-04-22 00:39 | 28.30262 | -81.44613 | 276 ft | 69 kts | 138° |
| 2026-04-22 00:39 | 28.29846 | -81.44323 | 179 ft | 69 kts | 139° |
| 2026-04-22 00:39 | 28.29465 | -81.44056 | 88 ft | 52 kts | 144° |
| 2026-04-22 00:40 | 28.29251 | -81.43904 | 90 ft | 22 kts | 148° |
| 2026-04-22 00:40 | 28.29161 | -81.43843 | 93 ft | 10 kts | 146° |
| 2026-04-22 00:40 | 28.29153 | -81.43791 | 93 ft | 8 kts | 60° |
| 2026-04-22 00:40 | 28.29179 | -81.43746 | 94 ft | 0 kts | 56° |
| 2026-04-22 00:41 | 28.29200 | -81.43708 | 93 ft | 11 kts | 57° |
| 2026-04-22 00:41 | 28.29249 | -81.43618 | 89 ft | 16 kts | 57° |
| 2026-04-22 00:41 | 28.29311 | -81.43508 | 90 ft | 16 kts | 58° |
| 2026-04-22 00:42 | 28.29384 | -81.43521 | 88 ft | 6 kts | 328° |
| 2026-04-22 00:42 | 28.29386 | -81.43522 | 88 ft | 0 kts | 328° |